sensor_id;sensor_type;location;lat;lon;timestamp;pressure;altitude;pressure_sealevel;temperature
73265;BMP280;61493;51.008;14.088;2024-01-06T12:58:53;97036.88;;;3.78
73265;BMP280;61493;51.008;14.088;2024-01-06T13:01:18;97043.19;;;3.81
73265;BMP280;61493;51.008;14.088;2024-01-06T13:03:44;97050.09;;;3.75
73265;BMP280;61493;51.008;14.088;2024-01-06T13:06:09;97045.03;;;3.68
73265;BMP280;61493;51.008;14.088;2024-01-06T13:08:34;97043.69;;;3.59
73265;BMP280;61493;51.008;14.088;2024-01-06T13:11:00;97049.94;;;3.65
73265;BMP280;61493;51.008;14.088;2024-01-06T13:13:25;97054.97;;;3.56
73265;BMP280;61493;51.008;14.088;2024-01-06T13:15:50;97050.81;;;3.59
73265;BMP280;61493;51.008;14.088;2024-01-06T13:18:16;97048.53;;;3.61
73265;BMP280;61493;51.008;14.088;2024-01-06T13:21:03;97052.13;;;3.51
73265;BMP280;61493;51.008;14.088;2024-01-06T13:23:28;97054.00;;;3.50
73265;BMP280;61493;51.008;14.088;2024-01-06T13:25:54;97066.25;;;3.37
73265;BMP280;61493;51.008;14.088;2024-01-06T13:28:22;97072.31;;;3.34
73265;BMP280;61493;51.008;14.088;2024-01-06T13:30:49;97074.91;;;3.34
73265;BMP280;61493;51.008;14.088;2024-01-06T13:33:14;97076.47;;;3.31
73265;BMP280;61493;51.008;14.088;2024-01-06T13:35:39;97075.91;;;3.24
73265;BMP280;61493;51.008;14.088;2024-01-06T13:38:05;97089.56;;;3.15
73265;BMP280;61493;51.008;14.088;2024-01-06T13:40:30;97087.94;;;3.01
73265;BMP280;61493;51.008;14.088;2024-01-06T13:42:56;97083.84;;;3.00
73265;BMP280;61493;51.008;14.088;2024-01-06T13:45:22;97080.81;;;3.02
73265;BMP280;61493;51.008;14.088;2024-01-06T13:47:47;97076.78;;;2.97
73265;BMP280;61493;51.008;14.088;2024-01-06T13:50:16;97083.66;;;2.91
73265;BMP280;61493;51.008;14.088;2024-01-06T13:52:44;97082.94;;;2.90
73265;BMP280;61493;51.008;14.088;2024-01-06T13:55:13;97096.19;;;2.80
73265;BMP280;61493;51.008;14.088;2024-01-06T13:57:39;97090.22;;;2.79
73265;BMP280;61493;51.008;14.088;2024-01-06T14:00:08;97098.13;;;2.76
73265;BMP280;61493;51.008;14.088;2024-01-06T14:02:33;97090.56;;;2.61
73265;BMP280;61493;51.008;14.088;2024-01-06T14:04:59;97091.34;;;2.58
73265;BMP280;61493;51.008;14.088;2024-01-06T14:07:24;97104.09;;;2.56
73265;BMP280;61493;51.008;14.088;2024-01-06T14:09:50;97103.06;;;2.50
73265;BMP280;61493;51.008;14.088;2024-01-06T14:12:15;97110.34;;;2.39
73265;BMP280;61493;51.008;14.088;2024-01-06T14:14:40;97101.09;;;2.34
73265;BMP280;61493;51.008;14.088;2024-01-06T14:17:09;97105.72;;;2.26
73265;BMP280;61493;51.008;14.088;2024-01-06T14:19:34;97108.72;;;2.25
73265;BMP280;61493;51.008;14.088;2024-01-06T14:21:59;97095.72;;;2.21
73265;BMP280;61493;51.008;14.088;2024-01-06T14:24:25;97101.00;;;2.18
73265;BMP280;61493;51.008;14.088;2024-01-06T14:26:51;97112.66;;;2.13
73265;BMP280;61493;51.008;14.088;2024-01-06T14:29:18;97119.47;;;2.07
73265;BMP280;61493;51.008;14.088;2024-01-06T14:31:43;97119.56;;;2.00
73265;BMP280;61493;51.008;14.088;2024-01-06T14:34:09;97124.78;;;2.00
73265;BMP280;61493;51.008;14.088;2024-01-06T14:36:34;97132.69;;;1.96
73265;BMP280;61493;51.008;14.088;2024-01-06T14:38:59;97127.63;;;1.86
73265;BMP280;61493;51.008;14.088;2024-01-06T14:41:26;97127.63;;;1.86
73265;BMP280;61493;51.008;14.088;2024-01-06T14:43:51;97132.19;;;1.78
73265;BMP280;61493;51.008;14.088;2024-01-06T14:46:16;97132.59;;;1.76
73265;BMP280;61493;51.008;14.088;2024-01-06T14:48:41;97124.81;;;1.73
73265;BMP280;61493;51.008;14.088;2024-01-06T14:51:07;97117.41;;;1.68
73265;BMP280;61493;51.008;14.088;2024-01-06T14:53:32;97125.69;;;1.63
73265;BMP280;61493;51.008;14.088;2024-01-06T14:56:00;97127.50;;;1.66
73265;BMP280;61493;51.008;14.088;2024-01-06T14:58:25;97136.50;;;1.61
73265;BMP280;61493;51.008;14.088;2024-01-06T15:00:51;97138.38;;;1.61
73265;BMP280;61493;51.008;14.088;2024-01-06T15:03:16;97141.53;;;1.48
73265;BMP280;61493;51.008;14.088;2024-01-06T15:05:42;97148.22;;;1.49
73265;BMP280;61493;51.008;14.088;2024-01-06T15:08:26;97153.44;;;1.49
73265;BMP280;61493;51.008;14.088;2024-01-06T15:10:52;97157.94;;;1.49
73265;BMP280;61493;51.008;14.088;2024-01-06T15:13:17;97157.97;;;1.45
73265;BMP280;61493;51.008;14.088;2024-01-06T15:15:43;97164.66;;;1.46
73265;BMP280;61493;51.008;14.088;2024-01-06T15:18:10;97170.72;;;1.40
73265;BMP280;61493;51.008;14.088;2024-01-06T15:20:35;97170.28;;;1.45
73265;BMP280;61493;51.008;14.088;2024-01-06T15:23:01;97179.66;;;1.39
73265;BMP280;61493;51.008;14.088;2024-01-06T15:25:26;97181.94;;;1.37
73265;BMP280;61493;51.008;14.088;2024-01-06T15:27:52;97186.38;;;1.40
73265;BMP280;61493;51.008;14.088;2024-01-06T15:30:18;97193.13;;;1.37
73265;BMP280;61493;51.008;14.088;2024-01-06T15:32:44;97193.84;;;1.38
73265;BMP280;61493;51.008;14.088;2024-01-06T15:35:09;97191.97;;;1.38
73265;BMP280;61493;51.008;14.088;2024-01-06T15:37:35;97190.09;;;1.39
73265;BMP280;61493;51.008;14.088;2024-01-06T15:40:00;97195.25;;;1.46
73265;BMP280;61493;51.008;14.088;2024-01-06T15:42:26;97198.13;;;1.55
73265;BMP280;61493;51.008;14.088;2024-01-06T15:44:51;97200.59;;;1.35
73265;BMP280;61493;51.008;14.088;2024-01-06T15:47:17;97200.34;;;1.26
73265;BMP280;61493;51.008;14.088;2024-01-06T15:49:42;97192.09;;;1.31
73265;BMP280;61493;51.008;14.088;2024-01-06T15:52:09;97195.03;;;1.33
73265;BMP280;61493;51.008;14.088;2024-01-06T15:54:34;97188.72;;;1.34
73265;BMP280;61493;51.008;14.088;2024-01-06T15:56:59;97191.75;;;1.29
73265;BMP280;61493;51.008;14.088;2024-01-06T15:59:25;97199.16;;;1.30
73265;BMP280;61493;51.008;14.088;2024-01-06T16:01:59;97191.75;;;1.29
73265;BMP280;61493;51.008;14.088;2024-01-06T16:04:25;97184.38;;;1.17
73265;BMP280;61493;51.008;14.088;2024-01-06T16:06:50;97197.53;;;1.09
73265;BMP280;61493;51.008;14.088;2024-01-06T16:09:18;97195.22;;;1.15
73265;BMP280;61493;51.008;14.088;2024-01-06T16:11:43;97194.09;;;1.16
73265;BMP280;61493;51.008;14.088;2024-01-06T16:14:08;97188.50;;;1.14
73265;BMP280;61493;51.008;14.088;2024-01-06T16:16:34;97188.19;;;1.12
73265;BMP280;61493;51.008;14.088;2024-01-06T16:19:02;97185.16;;;1.13
73265;BMP280;61493;51.008;14.088;2024-01-06T16:21:34;97192.97;;;1.17
73265;BMP280;61493;51.008;14.088;2024-01-06T16:24:00;97194.09;;;1.16
73265;BMP280;61493;51.008;14.088;2024-01-06T16:26:25;97205.31;;;1.13
73265;BMP280;61493;51.008;14.088;2024-01-06T16:28:51;97199.00;;;1.10
73265;BMP280;61493;51.008;14.088;2024-01-06T16:31:16;97200.13;;;1.09
73265;BMP280;61493;51.008;14.088;2024-01-06T16:33:41;97199.41;;;1.05
73265;BMP280;61493;51.008;14.088;2024-01-06T16:36:07;97203.19;;;1.01
73265;BMP280;61493;51.008;14.088;2024-01-06T16:38:36;97202.41;;;1.04
73265;BMP280;61493;51.008;14.088;2024-01-06T16:41:02;97202.84;;;0.99
73265;BMP280;61493;51.008;14.088;2024-01-06T16:43:31;97208.78;;;0.99
73265;BMP280;61493;51.008;14.088;2024-01-06T16:46:02;97207.69;;;0.97
73265;BMP280;61493;51.008;14.088;2024-01-06T16:48:28;97214.09;;;0.92
73265;BMP280;61493;51.008;14.088;2024-01-06T16:50:53;97214.81;;;0.93
73265;BMP280;61493;51.008;14.088;2024-01-06T16:53:21;97222.22;;;0.98
73265;BMP280;61493;51.008;14.088;2024-01-06T16:55:46;97221.88;;;0.96
73265;BMP280;61493;51.008;14.088;2024-01-06T16:58:12;97225.22;;;0.96
73265;BMP280;61493;51.008;14.088;2024-01-06T17:00:38;97224.84;;;0.98
73265;BMP280;61493;51.008;14.088;2024-01-06T17:03:04;97219.66;;;0.90
73265;BMP280;61493;51.008;14.088;2024-01-06T17:05:29;97217.06;;;0.90
73265;BMP280;61493;51.008;14.088;2024-01-06T17:07:54;97219.66;;;0.90
73265;BMP280;61493;51.008;14.088;2024-01-06T17:10:20;97217.47;;;0.85
73265;BMP280;61493;51.008;14.088;2024-01-06T17:12:46;97227.13;;;0.88
73265;BMP280;61493;51.008;14.088;2024-01-06T17:15:11;97235.03;;;0.81
73265;BMP280;61493;51.008;14.088;2024-01-06T17:17:38;97244.31;;;0.82
73265;BMP280;61493;51.008;14.088;2024-01-06T17:20:05;97246.22;;;0.78
73265;BMP280;61493;51.008;14.088;2024-01-06T17:22:33;97250.34;;;0.76
73265;BMP280;61493;51.008;14.088;2024-01-06T17:24:59;97249.25;;;0.73
73265;BMP280;61493;51.008;14.088;2024-01-06T17:27:25;97257.78;;;0.77
73265;BMP280;61493;51.008;14.088;2024-01-06T17:29:50;97255.94;;;0.74
73265;BMP280;61493;51.008;14.088;2024-01-06T17:32:16;97260.09;;;0.68
73265;BMP280;61493;51.008;14.088;2024-01-06T17:34:41;97265.66;;;0.66
73265;BMP280;61493;51.008;14.088;2024-01-06T17:37:07;97260.44;;;0.66
73265;BMP280;61493;51.008;14.088;2024-01-06T17:39:32;97261.59;;;0.65
73265;BMP280;61493;51.008;14.088;2024-01-06T17:41:57;97260.50;;;0.59
73265;BMP280;61493;51.008;14.088;2024-01-06T17:44:23;97264.66;;;0.50
73265;BMP280;61493;51.008;14.088;2024-01-06T17:46:48;97269.47;;;0.55
73265;BMP280;61493;51.008;14.088;2024-01-06T17:49:13;97267.63;;;0.52
73265;BMP280;61493;51.008;14.088;2024-01-06T17:51:39;97273.56;;;0.56
73265;BMP280;61493;51.008;14.088;2024-01-06T17:54:06;97275.81;;;0.50
73265;BMP280;61493;51.008;14.088;2024-01-06T17:56:32;97274.38;;;0.45
73265;BMP280;61493;51.008;14.088;2024-01-06T17:59:28;97281.06;;;0.47
73265;BMP280;61493;51.008;14.088;2024-01-06T18:01:53;97285.56;;;0.42
73265;BMP280;61493;51.008;14.088;2024-01-06T18:04:19;97285.97;;;0.34
73265;BMP280;61493;51.008;14.088;2024-01-06T18:06:45;97291.59;;;0.32
73265;BMP280;61493;51.008;14.088;2024-01-06T18:09:10;97283.78;;;0.25
73265;BMP280;61493;51.008;14.088;2024-01-06T18:11:37;97286.03;;;0.27
73265;BMP280;61493;51.008;14.088;2024-01-06T18:14:03;97286.88;;;0.09
73265;BMP280;61493;51.008;14.088;2024-01-06T18:16:28;97276.13;;;0.00
73265;BMP280;61493;51.008;14.088;2024-01-06T18:18:54;97283.53;;;0.02
73265;BMP280;61493;51.008;14.088;2024-01-06T18:21:19;97290.97;;;-0.01
73265;BMP280;61493;51.008;14.088;2024-01-06T18:23:44;97293.97;;;-0.06
73265;BMP280;61493;51.008;14.088;2024-01-06T18:26:11;97292.50;;;-0.07
73265;BMP280;61493;51.008;14.088;2024-01-06T18:28:38;97298.47;;;-0.10
73265;BMP280;61493;51.008;14.088;2024-01-06T18:31:04;97303.28;;;-0.12
73265;BMP280;61493;51.008;14.088;2024-01-06T18:38:33;97321.91;;;-0.17
73265;BMP280;61493;51.008;14.088;2024-01-06T18:40:58;97322.31;;;-0.22
73265;BMP280;61493;51.008;14.088;2024-01-06T18:43:25;97333.47;;;-0.21
73265;BMP280;61493;51.008;14.088;2024-01-06T18:45:51;97327.50;;;-0.26
73265;BMP280;61493;51.008;14.088;2024-01-06T18:48:16;97335.69;;;-0.31
73265;BMP280;61493;51.008;14.088;2024-01-06T18:50:42;97334.59;;;-0.44
73265;BMP280;61493;51.008;14.088;2024-01-06T18:53:09;97337.56;;;-0.38
73265;BMP280;61493;51.008;14.088;2024-01-06T18:55:34;97337.91;;;-0.36
73265;BMP280;61493;51.008;14.088;2024-01-06T18:57:59;97325.66;;;-0.47
73265;BMP280;61493;51.008;14.088;2024-01-06T19:00:25;97331.22;;;-0.41
73265;BMP280;61493;51.008;14.088;2024-01-06T19:03:16;97330.88;;;-0.57
73265;BMP280;61493;51.008;14.088;2024-01-06T19:08:50;97311.91;;;-0.65
73265;BMP280;61493;51.008;14.088;2024-01-06T19:11:22;97325.31;;;-0.63
73265;BMP280;61493;51.008;14.088;2024-01-06T19:13:48;97331.25;;;-0.66
73265;BMP280;61493;51.008;14.088;2024-01-06T19:16:13;97346.13;;;-0.59
73265;BMP280;61493;51.008;14.088;2024-01-06T19:18:39;97340.16;;;-0.67
73265;BMP280;61493;51.008;14.088;2024-01-06T19:24:12;97346.50;;;-0.61
73265;BMP280;61493;51.008;14.088;2024-01-06T19:26:44;97344.63;;;-0.68
73265;BMP280;61493;51.008;14.088;2024-01-06T19:32:43;97343.50;;;-0.56
73265;BMP280;61493;51.008;14.088;2024-01-06T19:35:17;97340.91;;;-0.70
73265;BMP280;61493;51.008;14.088;2024-01-06T19:38:21;97343.13;;;-0.76
73265;BMP280;61493;51.008;14.088;2024-01-06T19:40:49;97349.09;;;-0.68
73265;BMP280;61493;51.008;14.088;2024-01-06T19:43:26;97343.16;;;-0.72
73265;BMP280;61493;51.008;14.088;2024-01-06T19:45:53;97359.50;;;-0.68
73265;BMP280;61493;51.008;14.088;2024-01-06T19:48:19;97367.66;;;-0.73
73265;BMP280;61493;51.008;14.088;2024-01-06T19:50:45;97356.50;;;-0.81
73265;BMP280;61493;51.008;14.088;2024-01-06T19:53:10;97361.72;;;-0.88
73265;BMP280;61493;51.008;14.088;2024-01-06T19:55:35;97366.19;;;-0.78
73265;BMP280;61493;51.008;14.088;2024-01-06T19:58:01;97368.44;;;-0.83
73265;BMP280;61493;51.008;14.088;2024-01-06T20:03:40;97375.47;;;-0.80
73265;BMP280;61493;51.008;14.088;2024-01-06T20:06:13;97369.16;;;-0.90
73265;BMP280;61493;51.008;14.088;2024-01-06T20:08:39;97376.59;;;-0.88
73265;BMP280;61493;51.008;14.088;2024-01-06T20:11:20;97386.63;;;-0.91
73265;BMP280;61493;51.008;14.088;2024-01-06T20:13:51;97376.94;;;-0.97
73265;BMP280;61493;51.008;14.088;2024-01-06T20:16:27;97387.72;;;-0.99
73265;BMP280;61493;51.008;14.088;2024-01-06T20:18:52;97384.38;;;-0.92
73265;BMP280;61493;51.008;14.088;2024-01-06T20:21:44;97395.19;;;-0.83
73265;BMP280;61493;51.008;14.088;2024-01-06T20:24:37;97385.50;;;-0.97
73265;BMP280;61493;51.008;14.088;2024-01-06T20:27:04;97382.53;;;-0.92
73265;BMP280;61493;51.008;14.088;2024-01-06T20:29:30;97381.41;;;-0.91
73265;BMP280;61493;51.008;14.088;2024-01-06T20:31:55;97383.25;;;-1.02
73265;BMP280;61493;51.008;14.088;2024-01-06T20:34:20;97375.06;;;-1.04
73265;BMP280;61493;51.008;14.088;2024-01-06T20:36:46;97370.25;;;-0.98
73265;BMP280;61493;51.008;14.088;2024-01-06T20:39:12;97387.75;;;-0.92
73265;BMP280;61493;51.008;14.088;2024-01-06T20:41:37;97370.63;;;-1.00
73265;BMP280;61493;51.008;14.088;2024-01-06T20:44:05;97378.06;;;-0.98
73265;BMP280;61493;51.008;14.088;2024-01-06T20:46:37;97375.09;;;-1.00
73265;BMP280;61493;51.008;14.088;2024-01-06T20:49:16;97376.53;;;-1.06
73265;BMP280;61493;51.008;14.088;2024-01-06T20:51:41;97368.38;;;-1.19
73265;BMP280;61493;51.008;14.088;2024-01-06T20:54:07;97372.09;;;-1.13
73265;BMP280;61493;51.008;14.088;2024-01-06T20:56:33;97367.59;;;-1.23
73265;BMP280;61493;51.008;14.088;2024-01-06T20:58:58;97369.81;;;-1.32
73265;BMP280;61493;51.008;14.088;2024-01-06T21:01:25;97375.00;;;-1.32
73265;BMP280;61493;51.008;14.088;2024-01-06T21:03:50;97371.28;;;-1.31
73265;BMP280;61493;51.008;14.088;2024-01-06T21:06:26;97374.28;;;-1.26
73265;BMP280;61493;51.008;14.088;2024-01-06T21:08:52;97391.41;;;-1.14
73265;BMP280;61493;51.008;14.088;2024-01-06T21:11:20;97374.66;;;-1.27
73265;BMP280;61493;51.008;14.088;2024-01-06T21:14:13;97367.59;;;-1.23
73265;BMP280;61493;51.008;14.088;2024-01-06T21:17:13;97372.44;;;-1.18
73265;BMP280;61493;51.008;14.088;2024-01-06T21:19:40;97377.25;;;-1.20
73265;BMP280;61493;51.008;14.088;2024-01-06T21:22:05;97376.13;;;-1.26
73265;BMP280;61493;51.008;14.088;2024-01-06T21:24:31;97375.75;;;-1.28
73265;BMP280;61493;51.008;14.088;2024-01-06T21:26:59;97393.63;;;-1.20
73265;BMP280;61493;51.008;14.088;2024-01-06T21:29:27;97388.00;;;-1.29
73265;BMP280;61493;51.008;14.088;2024-01-06T21:32:01;97380.53;;;-1.45
73265;BMP280;61493;51.008;14.088;2024-01-06T21:34:30;97384.22;;;-1.42
73265;BMP280;61493;51.008;14.088;2024-01-06T21:37:04;97392.41;;;-1.44
73265;BMP280;61493;51.008;14.088;2024-01-06T21:39:32;97397.59;;;-1.47
73265;BMP280;61493;51.008;14.088;2024-01-06T21:42:02;97401.31;;;-1.45
73265;BMP280;61493;51.008;14.088;2024-01-06T21:44:41;97387.53;;;-1.49
73265;BMP280;61493;51.008;14.088;2024-01-06T21:47:21;97400.94;;;-1.40
73265;BMP280;61493;51.008;14.088;2024-01-06T21:49:51;97414.69;;;-1.39
73265;BMP280;61493;51.008;14.088;2024-01-06T21:52:20;97415.03;;;-1.44
73265;BMP280;61493;51.008;14.088;2024-01-06T21:54:49;97405.34;;;-1.51
73265;BMP280;61493;51.008;14.088;2024-01-06T21:57:14;97419.16;;;-1.36
73265;BMP280;61493;51.008;14.088;2024-01-06T21:59:42;97409.09;;;-1.45
73265;BMP280;61493;51.008;14.088;2024-01-06T22:02:26;97403.88;;;-1.52
73265;BMP280;61493;51.008;14.088;2024-01-06T22:05:10;97410.19;;;-1.42
73265;BMP280;61493;51.008;14.088;2024-01-06T22:07:36;97409.81;;;-1.51
73265;BMP280;61493;51.008;14.088;2024-01-06T22:10:01;97408.28;;;-1.60
73265;BMP280;61493;51.008;14.088;2024-01-06T22:12:39;97406.47;;;-1.56
73265;BMP280;61493;51.008;14.088;2024-01-06T22:15:08;97421.31;;;-1.56
73265;BMP280;61493;51.008;14.088;2024-01-06T22:17:42;97410.47;;;-1.69
73265;BMP280;61493;51.008;14.088;2024-01-06T22:20:13;97428.31;;;-1.60
73265;BMP280;61493;51.008;14.088;2024-01-06T22:22:39;97422.34;;;-1.68
73265;BMP280;61493;51.008;14.088;2024-01-06T22:25:05;97424.19;;;-1.75
73265;BMP280;61493;51.008;14.088;2024-01-06T22:27:37;97424.53;;;-1.73
73265;BMP280;61493;51.008;14.088;2024-01-06T22:30:23;97440.94;;;-1.62
73265;BMP280;61493;51.008;14.088;2024-01-06T22:33:13;97429.38;;;-1.75
73265;BMP280;61493;51.008;14.088;2024-01-06T22:35:42;97417.75;;;-1.89
73265;BMP280;61493;51.008;14.088;2024-01-06T22:38:13;97419.66;;;-1.86
73265;BMP280;61493;51.008;14.088;2024-01-06T22:40:38;97428.16;;;-1.89
73265;BMP280;61493;51.008;14.088;2024-01-06T22:43:07;97424.78;;;-1.93
73265;BMP280;61493;51.008;14.088;2024-01-06T22:45:35;97440.75;;;-1.91
73265;BMP280;61493;51.008;14.088;2024-01-06T22:48:04;97444.47;;;-1.88
73265;BMP280;61493;51.008;14.088;2024-01-06T22:50:36;97419.56;;;-2.00
73265;BMP280;61493;51.008;14.088;2024-01-06T22:53:04;97429.97;;;-1.93
73265;BMP280;61493;51.008;14.088;2024-01-06T22:55:31;97424.34;;;-2.06
73265;BMP280;61493;51.008;14.088;2024-01-06T22:58:03;97436.19;;;-2.08
73265;BMP280;61493;51.008;14.088;2024-01-06T23:00:29;97449.66;;;-1.92
73265;BMP280;61493;51.008;14.088;2024-01-06T23:03:11;97445.19;;;-1.91
73265;BMP280;61493;51.008;14.088;2024-01-06T23:06:08;97457.88;;;-1.86
73265;BMP280;61493;51.008;14.088;2024-01-06T23:08:34;97462.25;;;-1.94
73265;BMP280;61493;51.008;14.088;2024-01-06T23:11:01;97467.41;;;-1.97
73265;BMP280;61493;51.008;14.088;2024-01-06T23:13:26;97462.22;;;-1.97
73265;BMP280;61493;51.008;14.088;2024-01-06T23:15:52;97470.03;;;-1.94
73265;BMP280;61493;51.008;14.088;2024-01-06T23:18:24;97457.00;;;-2.01
73265;BMP280;61493;51.008;14.088;2024-01-06T23:20:52;97475.88;;;-2.04
73265;BMP280;61493;51.008;14.088;2024-01-06T23:23:21;97463.69;;;-2.00
73265;BMP280;61493;51.008;14.088;2024-01-06T23:25:47;97468.09;;;-2.08
73265;BMP280;61493;51.008;14.088;2024-01-06T23:28:31;97465.84;;;-2.09
73265;BMP280;61493;51.008;14.088;2024-01-06T23:30:59;97455.81;;;-2.14
73265;BMP280;61493;51.008;14.088;2024-01-06T23:33:29;97475.16;;;-2.01
73265;BMP280;61493;51.008;14.088;2024-01-06T23:36:01;97453.22;;;-2.14
73265;BMP280;61493;51.008;14.088;2024-01-06T23:38:31;97470.34;;;-2.06
73265;BMP280;61493;51.008;14.088;2024-01-06T23:40:57;97477.72;;;-2.08
73265;BMP280;61493;51.008;14.088;2024-01-06T23:43:22;97482.22;;;-2.02
73265;BMP280;61493;51.008;14.088;2024-01-06T23:45:47;97476.16;;;-2.20
73265;BMP280;61493;51.008;14.088;2024-01-06T23:48:16;97477.63;;;-2.19
73265;BMP280;61493;51.008;14.088;2024-01-06T23:50:57;97474.22;;;-2.27
73265;BMP280;61493;51.008;14.088;2024-01-06T23:53:53;97472.03;;;-2.25
73265;BMP280;61493;51.008;14.088;2024-01-06T23:56:37;97468.59;;;-2.32
73265;BMP280;61493;51.008;14.088;2024-01-06T23:59:05;97476.00;;;-2.34
